Time;durP1;ratioP1;P1;durP2;ratioP2;P2;SDS_P1;SDS_P2;PMS_P1;PMS_P2;Temp;Humidity;BMP_temperature;BMP_pressure;BME280_temperature;BME280_humidity;BME280_pressure;Samples;Min_cycle;Max_cycle;Signal;HPM_P1;HPM_P2
2022/04/19 00:00:32;;;;;;;1.97;1.30;;;5.60;96.80;;;;;;5031051;28;20178;-67
2022/04/19 00:02:58;;;;;;;1.60;1.50;;;5.60;97.00;;;;;;5031312;28;20399;-68
2022/04/19 00:05:24;;;;;;;1.30;1.20;;;5.60;97.30;;;;;;5031282;28;20407;-68
2022/04/19 00:07:50;;;;;;;1.10;1.00;;;5.60;97.50;;;;;;5031308;28;20462;-67
2022/04/19 00:10:15;;;;;;;1.90;1.27;;;5.50;97.80;;;;;;5031239;28;20190;-67
2022/04/19 00:12:42;;;;;;;2.13;1.53;;;5.50;98.20;;;;;;5031135;28;20163;-68
2022/04/19 00:15:09;;;;;;;4.60;1.70;;;5.50;98.50;;;;;;5031033;28;20182;-67
2022/04/19 00:17:35;;;;;;;2.20;1.50;;;5.50;98.70;;;;;;5031517;28;20780;-68
2022/04/19 00:20:00;;;;;;;3.93;1.20;;;5.40;99.10;;;;;;5031408;28;20446;-68
2022/04/19 00:22:28;;;;;;;1.87;1.10;;;5.40;99.40;;;;;;5031209;28;20182;-68
2022/04/19 00:24:54;;;;;;;2.63;1.50;;;5.40;99.60;;;;;;5031136;28;20211;-68
2022/04/19 00:27:19;;;;;;;1.70;1.40;;;5.40;99.90;;;;;;5030816;28;20485;-68
2022/04/19 00:29:47;;;;;;;1.90;1.20;;;5.50;99.90;;;;;;5031046;28;20422;-68
2022/04/19 00:32:12;;;;;;;1.53;1.20;;;5.40;99.90;;;;;;5031483;28;20168;-68
2022/04/19 00:34:41;;;;;;;1.07;0.90;;;5.40;99.90;;;;;;5031006;28;20406;-68
2022/04/19 00:37:06;;;;;;;2.83;2.03;;;5.40;99.90;;;;;;5030894;28;20521;-68
2022/04/19 00:39:32;;;;;;;1.20;1.10;;;5.40;99.90;;;;;;5031027;28;20428;-68
2022/04/19 00:41:57;;;;;;;1.40;1.30;;;5.30;99.90;;;;;;5030933;28;20622;-67
2022/04/19 00:44:23;;;;;;;1.40;1.30;;;5.40;99.90;;;;;;5031069;28;20164;-67
2022/04/19 00:46:50;;;;;;;1.17;1.07;;;5.40;99.90;;;;;;5030830;28;20199;-67
2022/04/19 00:49:17;;;;;;;1.30;1.20;;;5.40;99.90;;;;;;5030746;28;20454;-67
2022/04/19 00:51:46;;;;;;;1.20;1.10;;;5.40;99.90;;;;;;5030833;28;20508;-67
2022/04/19 00:54:13;;;;;;;1.40;1.30;;;5.30;99.90;;;;;;5030729;28;20402;-67
2022/04/19 00:56:40;;;;;;;1.53;1.13;;;5.30;99.90;;;;;;5030680;28;20778;-68
2022/04/19 00:59:06;;;;;;;1.50;1.23;;;5.30;99.90;;;;;;5030831;28;20430;-67
2022/04/19 01:01:33;;;;;;;1.50;1.13;;;5.20;99.90;;;;;;5032180;28;20796;-67
2022/04/19 01:03:59;;;;;;;1.50;1.40;;;5.20;99.90;;;;;;5034465;28;20411;-67
2022/04/19 01:06:24;;;;;;;1.70;1.60;;;5.20;99.90;;;;;;5034092;28;20461;-68
2022/04/19 01:08:50;;;;;;;1.20;1.00;;;5.10;99.90;;;;;;5033261;28;20230;-68
2022/04/19 01:14:21;;;;;;;1.70;1.10;;;5.10;99.90;;;;;;4993943;28;20408;-68
2022/04/19 01:16:47;;;;;;;2.20;1.20;;;5.10;99.90;;;;;;4997269;28;20470;-68
2022/04/19 01:19:15;;;;;;;3.87;2.27;;;5.10;99.90;;;;;;5016363;28;20234;-68
2022/04/19 01:21:57;;;;;;;1.73;1.63;;;5.00;99.90;;;;;;5035138;28;20505;-68
2022/04/19 01:24:23;;;;;;;2.20;1.30;;;5.10;99.90;;;;;;5034195;28;20489;-68
2022/04/19 01:26:53;;;;;;;1.17;1.10;;;5.00;99.90;;;;;;5034219;28;20454;-68
2022/04/19 01:29:18;;;;;;;1.60;1.50;;;5.00;99.90;;;;;;5034052;28;20790;-68
2022/04/19 01:31:45;;;;;;;1.30;1.20;;;5.00;99.90;;;;;;5034323;28;20407;-68
2022/04/19 01:34:11;;;;;;;1.30;1.20;;;5.00;99.90;;;;;;5034147;28;20176;-68
2022/04/19 01:36:37;;;;;;;1.30;1.20;;;5.00;99.90;;;;;;5034201;28;20896;-67
2022/04/19 01:39:04;;;;;;;2.03;1.30;;;5.00;99.90;;;;;;5033829;28;20904;-67
2022/04/19 01:41:30;;;;;;;3.13;1.87;;;5.00;99.90;;;;;;5034059;28;20560;-67
2022/04/19 01:43:55;;;;;;;2.40;1.63;;;5.00;99.90;;;;;;5034481;28;20497;-68
2022/04/19 01:46:20;;;;;;;3.07;1.67;;;5.00;99.90;;;;;;5034488;28;20206;-67
2022/04/19 01:48:46;;;;;;;1.87;1.70;;;5.00;99.90;;;;;;5034093;28;20282;-68
2022/04/19 01:51:12;;;;;;;1.67;1.40;;;5.00;99.90;;;;;;5033721;28;20175;-67
2022/04/19 01:53:38;;;;;;;1.70;1.23;;;5.00;99.90;;;;;;5033242;28;20168;-67
2022/04/19 01:56:03;;;;;;;1.53;1.43;;;5.00;99.90;;;;;;5033132;28;20414;-67
2022/04/19 01:58:29;;;;;;;6.40;1.80;;;5.00;99.90;;;;;;5032987;28;20202;-67
2022/04/19 02:00:54;;;;;;;1.57;1.30;;;5.00;99.90;;;;;;5033207;28;20172;-67
2022/04/19 02:03:20;;;;;;;1.80;1.30;;;5.00;99.90;;;;;;5033243;28;20237;-67
2022/04/19 02:05:46;;;;;;;1.97;1.40;;;5.00;99.90;;;;;;5033106;28;20168;-69
2022/04/19 02:08:11;;;;;;;4.10;2.53;;;5.00;99.90;;;;;;5033120;28;20180;-69
2022/04/19 02:10:37;;;;;;;1.40;1.30;;;5.00;99.90;;;;;;5033094;28;20164;-68
2022/04/19 02:13:03;;;;;;;1.60;1.40;;;5.00;99.90;;;;;;5032317;28;20625;-68
2022/04/19 02:15:29;;;;;;;1.53;1.43;;;5.00;99.90;;;;;;5033085;28;20183;-68
2022/04/19 02:17:54;;;;;;;2.00;1.50;;;5.00;99.90;;;;;;5033027;28;20432;-69
2022/04/19 02:20:20;;;;;;;1.27;1.10;;;5.00;99.90;;;;;;5033080;28;20199;-69
2022/04/19 02:22:46;;;;;;;1.70;1.60;;;5.00;99.90;;;;;;5032750;28;20226;-69
2022/04/19 02:25:13;;;;;;;1.40;1.30;;;5.00;99.90;;;;;;5033276;28;20263;-68
2022/04/19 02:27:41;;;;;;;1.63;1.53;;;5.00;99.90;;;;;;5032612;28;20925;-66
2022/04/19 02:30:14;;;;;;;2.13;2.00;;;4.90;99.90;;;;;;5032952;28;20472;-66
2022/04/19 02:32:44;;;;;;;2.50;1.50;;;4.90;99.90;;;;;;5032595;28;20398;-66
2022/04/19 02:35:09;;;;;;;1.83;1.60;;;4.90;99.90;;;;;;5032540;28;20402;-69
2022/04/19 02:37:36;;;;;;;1.30;1.20;;;4.90;99.90;;;;;;5032351;28;20410;-67
2022/04/19 02:40:01;;;;;;;3.30;1.20;;;4.90;99.90;;;;;;5032369;28;20218;-69
2022/04/19 02:42:27;;;;;;;2.13;1.93;;;4.90;99.90;;;;;;5032533;28;20402;-67
2022/04/19 02:44:52;;;;;;;1.63;1.50;;;4.80;99.90;;;;;;5032496;28;20619;-67
2022/04/19 02:47:18;;;;;;;2.10;1.20;;;4.80;99.90;;;;;;5032500;28;20222;-67
2022/04/19 02:49:46;;;;;;;2.33;1.23;;;4.80;99.90;;;;;;5032202;28;20218;-67
2022/04/19 02:52:12;;;;;;;1.37;1.23;;;4.70;99.90;;;;;;5032486;28;20255;-67
2022/04/19 02:54:37;;;;;;;1.20;0.97;;;4.70;99.90;;;;;;5032220;28;20557;-67
2022/04/19 02:57:04;;;;;;;1.50;1.40;;;4.60;99.90;;;;;;5032528;28;20171;-68
2022/04/19 02:59:29;;;;;;;4.10;1.30;;;4.60;99.90;;;;;;5032260;28;20198;-67
2022/04/19 03:01:55;;;;;;;1.20;1.13;;;4.60;99.90;;;;;;5032285;28;20410;-67
2022/04/19 03:04:20;;;;;;;3.83;1.30;;;4.50;99.90;;;;;;5032160;28;20936;-67
2022/04/19 03:06:47;;;;;;;1.57;1.40;;;4.50;99.90;;;;;;5031974;28;20563;-67
2022/04/19 03:09:12;;;;;;;2.37;1.33;;;4.50;99.90;;;;;;5031808;28;20273;-67
2022/04/19 03:11:38;;;;;;;1.93;1.40;;;4.50;99.90;;;;;;5031814;28;20497;-67
2022/04/19 03:14:06;;;;;;;2.27;1.50;;;4.50;99.90;;;;;;5031978;28;20178;-67
2022/04/19 03:16:32;;;;;;;1.83;1.40;;;4.40;99.90;;;;;;5031955;28;20253;-67
2022/04/19 03:18:57;;;;;;;2.30;2.10;;;4.40;99.90;;;;;;5031720;28;20458;-67
2022/04/19 03:21:23;;;;;;;2.57;1.90;;;4.30;99.90;;;;;;5031657;28;20235;-67
2022/04/19 03:29:16;;;;;;;3.60;1.57;;;4.30;99.90;;;;;;5031726;28;20510;-68
2022/04/19 03:31:42;;;;;;;1.53;1.43;;;4.30;99.90;;;;;;5031805;28;20465;-68
2022/04/19 03:34:07;;;;;;;1.70;1.27;;;4.20;99.90;;;;;;5031587;28;20168;-68
2022/04/19 03:36:33;;;;;;;1.53;1.00;;;4.20;99.90;;;;;;5031551;28;20195;-69
2022/04/19 03:38:59;;;;;;;2.40;1.57;;;4.20;99.90;;;;;;5031502;28;20253;-68
2022/04/19 03:41:44;;;;;;;1.13;1.03;;;4.10;99.90;;;;;;5031547;28;20171;-68
2022/04/19 03:44:11;;;;;;;1.17;1.10;;;4.10;99.90;;;;;;5031477;28;20410;-69
2022/04/19 03:47:07;;;;;;;2.60;1.60;;;4.10;99.90;;;;;;5031575;28;20800;-67
2022/04/19 03:49:23;;;;;;;1.80;1.70;;;4.10;99.90;;;;;;5031768;28;20449;-67
2022/04/19 03:51:48;;;;;;;2.33;1.27;;;4.00;99.90;;;;;;5031731;28;20450;-68
2022/04/19 03:54:14;;;;;;;1.40;1.30;;;4.00;99.90;;;;;;5031948;28;20484;-67
2022/04/19 03:56:39;;;;;;;2.27;1.77;;;4.00;99.90;;;;;;5031453;28;20175;-68
2022/04/19 03:59:06;;;;;;;2.17;1.70;;;4.00;99.90;;;;;;5031205;28;20193;-68
2022/04/19 04:01:31;;;;;;;2.90;2.27;;;4.00;99.90;;;;;;5031726;28;20191;-67
2022/04/19 04:03:57;;;;;;;1.30;1.20;;;4.00;99.90;;;;;;5031284;28;20885;-67
2022/04/19 04:06:22;;;;;;;2.63;1.73;;;3.90;99.90;;;;;;5031059;28;20258;-67
2022/04/19 04:08:47;;;;;;;1.33;1.10;;;3.90;99.90;;;;;;5031329;28;20195;-67
2022/04/19 04:11:13;;;;;;;1.23;1.13;;;3.90;99.90;;;;;;5031339;28;20203;-68
2022/04/19 04:13:38;;;;;;;2.03;1.73;;;3.80;99.90;;;;;;5031080;28;20168;-68
2022/04/19 04:16:04;;;;;;;1.50;1.40;;;3.80;99.90;;;;;;5031306;28;20179;-68
2022/04/19 04:18:31;;;;;;;1.50;1.40;;;3.80;99.90;;;;;;5031422;28;20712;-68
2022/04/19 04:20:56;;;;;;;1.57;1.47;;;3.80;99.90;;;;;;5031218;28;20279;-68
2022/04/19 04:23:22;;;;;;;1.63;1.40;;;3.80;99.90;;;;;;5031092;28;20469;-68
2022/04/19 04:25:47;;;;;;;2.00;1.40;;;3.80;99.90;;;;;;5031010;28;20210;-68
2022/04/19 04:28:13;;;;;;;1.37;1.23;;;3.80;99.90;;;;;;5030978;28;20184;-68
2022/04/19 04:30:38;;;;;;;2.37;1.43;;;3.80;99.90;;;;;;5030994;28;20175;-68
2022/04/19 04:33:04;;;;;;;2.17;1.53;;;3.90;99.90;;;;;;5031120;28;20195;-68
2022/04/19 04:35:29;;;;;;;1.57;1.47;;;3.90;99.90;;;;;;5031310;28;20171;-68
2022/04/19 04:37:55;;;;;;;2.50;1.43;;;3.90;99.90;;;;;;5033459;28;20195;-68
2022/04/19 04:40:20;;;;;;;1.90;1.43;;;3.90;99.90;;;;;;5034912;28;20168;-68
2022/04/19 04:42:46;;;;;;;3.37;1.80;;;3.80;99.90;;;;;;5034636;28;20172;-68
2022/04/19 04:45:11;;;;;;;3.57;1.53;;;3.90;99.90;;;;;;5034943;28;20173;-68
2022/04/19 04:50:21;;;;;;;1.60;1.50;;;3.90;99.90;;;;;;5034638;28;20253;-68
2022/04/19 04:52:47;;;;;;;1.90;1.80;;;3.90;99.90;;;;;;5034718;28;20598;-68
2022/04/19 04:55:12;;;;;;;2.20;1.97;;;3.90;99.90;;;;;;5034540;28;20250;-68
2022/04/19 04:57:38;;;;;;;1.73;1.63;;;4.00;99.90;;;;;;5033168;28;20263;-68
2022/04/19 05:00:04;;;;;;;4.90;2.17;;;4.00;99.90;;;;;;5034764;28;20170;-68
2022/04/19 05:02:30;;;;;;;3.00;1.40;;;4.00;99.90;;;;;;5034446;28;20262;-68
2022/04/19 05:04:55;;;;;;;2.80;2.10;;;4.00;99.90;;;;;;5034737;28;20493;-68
2022/04/19 05:07:21;;;;;;;3.23;2.50;;;4.10;99.90;;;;;;5036194;28;20219;-68
2022/04/19 05:09:46;;;;;;;1.93;1.63;;;4.10;99.90;;;;;;5037172;28;20282;-68
2022/04/19 05:12:12;;;;;;;2.43;1.73;;;4.30;99.90;;;;;;5036470;28;20175;-68
2022/04/19 05:14:37;;;;;;;4.63;2.07;;;4.30;99.90;;;;;;5034615;28;20183;-68
2022/04/19 05:17:03;;;;;;;2.00;1.57;;;4.40;99.90;;;;;;5034970;28;20171;-69
2022/04/19 05:19:29;;;;;;;4.17;2.50;;;4.40;99.90;;;;;;5034442;28;20200;-68
2022/04/19 05:21:54;;;;;;;3.00;1.60;;;4.50;99.90;;;;;;5034609;28;20314;-68
2022/04/19 05:24:19;;;;;;;2.03;1.93;;;4.60;99.90;;;;;;5034751;28;20163;-70
2022/04/19 05:26:45;;;;;;;7.80;1.83;;;4.60;99.90;;;;;;5034878;28;20676;-69
2022/04/19 05:29:10;;;;;;;2.20;1.60;;;4.70;99.90;;;;;;5034879;28;20183;-68
2022/04/19 05:31:36;;;;;;;2.37;2.20;;;4.80;99.90;;;;;;5033437;28;20196;-69
2022/04/19 05:34:02;;;;;;;1.70;1.60;;;4.90;99.90;;;;;;5034656;28;20204;-71
2022/04/19 05:36:28;;;;;;;2.70;2.50;;;4.90;99.90;;;;;;5033897;28;20410;-67
2022/04/19 05:38:54;;;;;;;3.80;2.10;;;5.30;99.90;;;;;;5031970;28;20207;-68
2022/04/19 05:41:20;;;;;;;4.53;2.27;;;5.40;99.90;;;;;;5033184;28;20418;-68
2022/04/19 05:43:47;;;;;;;2.17;1.80;;;5.50;99.90;;;;;;5032690;28;20175;-68
2022/04/19 05:46:12;;;;;;;2.83;1.87;;;5.70;99.90;;;;;;5033794;28;20461;-68
2022/04/19 05:48:38;;;;;;;2.87;1.97;;;6.30;99.90;;;;;;5032477;28;20438;-68
2022/04/19 05:51:03;;;;;;;2.53;1.50;;;6.90;99.90;;;;;;5033577;28;20171;-68
2022/04/19 05:53:29;;;;;;;1.63;1.50;;;7.40;99.90;;;;;;5033324;28;20164;-66
2022/04/19 05:55:54;;;;;;;1.50;1.40;;;8.00;99.90;;;;;;5033226;28;20175;-66
2022/04/19 05:58:20;;;;;;;2.00;1.53;;;8.40;99.90;;;;;;5033122;28;20235;-66
2022/04/19 06:00:45;;;;;;;1.70;1.60;;;8.80;99.90;;;;;;5033594;28;20194;-67
2022/04/19 06:05:55;;;;;;;1.70;1.53;;;9.40;99.90;;;;;;5033497;28;20693;-69
2022/04/19 06:08:20;;;;;;;1.93;1.77;;;9.80;99.90;;;;;;5033201;28;20467;-69
2022/04/19 06:10:48;;;;;;;1.90;1.43;;;10.20;99.90;;;;;;5033281;28;20534;-69
2022/04/19 06:13:13;;;;;;;7.50;2.30;;;10.10;99.90;;;;;;5033059;28;20642;-69
2022/04/19 06:15:39;;;;;;;3.77;2.17;;;10.40;99.90;;;;;;5032770;28;20449;-68
2022/04/19 06:18:04;;;;;;;3.07;2.13;;;10.90;99.00;;;;;;5032957;28;20187;-69
2022/04/19 06:20:30;;;;;;;2.00;1.80;;;11.20;98.10;;;;;;5032809;28;20186;-68
2022/04/19 06:22:55;;;;;;;6.00;2.50;;;11.40;96.60;;;;;;5032766;28;20175;-69
2022/04/19 06:25:21;;;;;;;3.17;2.00;;;11.60;96.60;;;;;;5032959;28;20211;-68
2022/04/19 06:27:46;;;;;;;5.80;1.90;;;11.60;95.60;;;;;;5032546;28;20196;-66
2022/04/19 06:30:12;;;;;;;3.10;2.00;;;11.70;94.40;;;;;;5032830;28;20164;-67
2022/04/19 06:32:38;;;;;;;2.60;1.87;;;11.70;94.50;;;;;;5032556;28;20648;-66
2022/04/19 06:35:04;;;;;;;2.67;1.87;;;12.10;93.40;;;;;;5032562;28;20628;-67
2022/04/19 06:37:30;;;;;;;3.10;2.47;;;12.50;92.90;;;;;;5032378;28;20188;-67
2022/04/19 06:40:00;;;;;;;1.60;1.50;;;12.50;91.90;;;;;;5032730;28;20430;-67
2022/04/19 06:42:26;;;;;;;3.57;1.83;;;12.40;91.30;;;;;;5047266;28;20415;-66
2022/04/19 06:44:51;;;;;;;2.40;2.00;;;12.80;91.50;;;;;;5052221;28;20945;-67
2022/04/19 06:47:17;;;;;;;2.60;2.37;;;12.90;90.50;;;;;;5032550;28;20242;-67
2022/04/19 06:49:43;;;;;;;3.07;2.00;;;12.80;90.80;;;;;;5031918;28;20214;-69
2022/04/19 06:52:08;;;;;;;2.67;1.97;;;12.70;90.40;;;;;;5032140;28;20201;-66
2022/04/19 06:54:34;;;;;;;2.07;1.80;;;12.40;90.40;;;;;;5032371;28;20244;-67
2022/04/19 06:56:59;;;;;;;2.73;2.10;;;13.20;88.60;;;;;;5032241;28;20172;-67
2022/04/19 06:59:25;;;;;;;4.00;2.93;;;13.70;86.10;;;;;;5030324;28;20194;-67
2022/04/19 07:01:51;;;;;;;2.50;2.30;;;13.30;85.50;;;;;;5031831;28;20587;-67
2022/04/19 07:04:17;;;;;;;3.40;2.50;;;13.40;86.30;;;;;;5031956;28;20405;-67
2022/04/19 07:06:42;;;;;;;1.90;1.47;;;13.10;84.80;;;;;;5031722;28;20199;-66
2022/04/19 07:09:08;;;;;;;2.93;1.87;;;13.30;84.40;;;;;;5031762;28;20219;-67
2022/04/19 07:11:36;;;;;;;4.30;1.90;;;14.00;82.00;;;;;;5031952;28;20179;-67
2022/04/19 07:14:02;;;;;;;3.73;2.40;;;14.10;81.00;;;;;;5031718;28;20406;-67
2022/04/19 07:16:27;;;;;;;4.13;2.70;;;14.10;78.80;;;;;;5045411;28;20785;-67
2022/04/19 07:18:53;;;;;;;2.37;2.00;;;14.10;78.40;;;;;;5051605;28;20217;-68
2022/04/19 07:26:47;;;;;;;2.23;1.90;;;14.40;74.10;;;;;;5052093;28;20460;-67
2022/04/19 07:29:15;;;;;;;3.13;1.97;;;15.10;72.40;;;;;;5051814;28;20437;-68
2022/04/19 07:31:42;;;;;;;2.93;1.93;;;14.90;71.70;;;;;;5051559;28;20924;-68
2022/04/19 07:34:09;;;;;;;2.60;2.03;;;14.80;71.40;;;;;;5051653;28;20410;-68
2022/04/19 07:36:39;;;;;;;2.60;2.40;;;14.80;69.10;;;;;;5050792;28;20517;-68
2022/04/19 07:39:05;;;;;;;3.10;2.40;;;15.00;68.20;;;;;;5031483;28;20420;-67
2022/04/19 07:41:31;;;;;;;1.73;1.60;;;15.50;67.00;;;;;;5045710;28;20411;-68
2022/04/19 07:43:57;;;;;;;2.20;1.90;;;15.10;68.70;;;;;;5031311;28;20409;-68
2022/04/19 07:46:23;;;;;;;2.73;1.70;;;15.50;65.60;;;;;;5029578;28;20201;-68
2022/04/19 07:48:50;;;;;;;1.83;1.73;;;15.80;65.00;;;;;;5031406;28;20201;-69
2022/04/19 07:51:16;;;;;;;3.10;1.80;;;15.90;63.50;;;;;;5031281;28;20527;-68
2022/04/19 07:53:42;;;;;;;1.87;1.53;;;16.30;62.30;;;;;;5031192;28;20409;-67
2022/04/19 07:56:08;;;;;;;1.73;1.30;;;16.30;59.80;;;;;;5031090;28;20179;-68
2022/04/19 07:58:33;;;;;;;1.70;1.60;;;16.10;58.70;;;;;;5031092;28;20627;-68
2022/04/19 08:00:59;;;;;;;1.33;1.23;;;15.70;59.70;;;;;;5030943;28;20184;-69
2022/04/19 08:03:25;;;;;;;2.33;1.50;;;16.30;59.40;;;;;;5031415;28;20257;-68
2022/04/19 08:05:51;;;;;;;2.43;1.60;;;16.20;58.00;;;;;;5030709;28;20456;-68
2022/04/19 08:08:18;;;;;;;2.60;1.57;;;16.00;58.90;;;;;;5031137;28;20192;-69
2022/04/19 08:10:44;;;;;;;2.00;1.60;;;15.50;59.30;;;;;;5031421;28;20177;-69
2022/04/19 08:13:09;;;;;;;1.27;1.17;;;15.50;60.80;;;;;;5035120;28;20902;-69
2022/04/19 08:15:35;;;;;;;2.00;1.50;;;15.90;59.00;;;;;;5034822;28;20593;-68
2022/04/19 08:18:01;;;;;;;1.30;1.20;;;16.20;59.20;;;;;;5034803;28;20668;-68
2022/04/19 08:20:26;;;;;;;1.67;1.57;;;16.00;59.60;;;;;;5034976;28;20625;-67
2022/04/19 08:22:52;;;;;;;1.87;1.70;;;16.30;58.50;;;;;;5034859;28;20610;-68
2022/04/19 08:25:17;;;;;;;1.30;1.20;;;16.70;58.20;;;;;;5034528;28;20216;-67
2022/04/19 08:27:47;;;;;;;2.90;1.47;;;16.80;58.10;;;;;;5034558;28;20197;-68
2022/04/19 08:30:17;;;;;;;1.80;1.60;;;16.50;58.20;;;;;;5034978;28;20256;-68
2022/04/19 08:32:44;;;;;;;1.53;1.43;;;16.70;57.40;;;;;;5034808;28;20486;-68
2022/04/19 08:35:10;;;;;;;1.50;1.40;;;16.10;57.90;;;;;;5034714;28;20404;-67
2022/04/19 08:37:35;;;;;;;1.77;1.67;;;15.80;58.20;;;;;;5034749;28;20786;-67
2022/04/19 08:40:06;;;;;;;1.90;1.20;;;16.40;58.00;;;;;;5034780;28;20182;-67
2022/04/19 08:42:32;;;;;;;1.70;1.60;;;16.30;56.90;;;;;;5047803;28;20176;-70
2022/04/19 08:45:02;;;;;;;2.23;1.50;;;16.20;57.10;;;;;;5050188;28;20425;-68
2022/04/19 08:47:30;;;;;;;1.37;1.27;;;16.00;57.40;;;;;;5034196;28;20802;-69
2022/04/19 08:49:56;;;;;;;1.53;1.40;;;16.30;57.30;;;;;;5034214;28;20503;-67
2022/04/19 08:52:21;;;;;;;2.33;1.37;;;16.50;57.20;;;;;;5034655;28;20436;-68
2022/04/19 08:57:33;;;;;;;1.90;1.37;;;16.50;57.30;;;;;;5034661;28;20227;-68
2022/04/19 09:00:00;;;;;;;1.50;1.20;;;16.40;56.80;;;;;;5034669;28;20503;-69
2022/04/19 09:02:28;;;;;;;1.50;1.23;;;16.70;57.30;;;;;;5034495;28;20406;-69
2022/04/19 09:05:10;;;;;;;1.30;0.90;;;16.70;56.70;;;;;;5032799;28;20427;-69
2022/04/19 09:07:36;;;;;;;1.40;1.30;;;16.50;56.50;;;;;;5034070;28;20549;-68
2022/04/19 09:10:03;;;;;;;1.93;1.37;;;16.10;56.40;;;;;;5034634;28;20409;-68
2022/04/19 09:12:29;;;;;;;1.50;1.40;;;15.70;56.90;;;;;;5034197;28;20410;-68
2022/04/19 09:14:58;;;;;;;1.40;1.30;;;15.80;56.90;;;;;;5033880;28;20415;-69
2022/04/19 09:17:31;;;;;;;5.90;1.77;;;15.60;57.10;;;;;;5034033;28;20173;-67
2022/04/19 09:20:15;;;;;;;1.30;1.10;;;15.40;57.80;;;;;;5033740;28;20414;-68
2022/04/19 09:22:43;;;;;;;1.27;1.10;;;15.50;58.00;;;;;;5034159;28;20422;-67
2022/04/19 09:25:16;;;;;;;1.30;1.20;;;15.70;58.60;;;;;;5033961;28;20411;-68
2022/04/19 09:27:48;;;;;;;1.20;1.10;;;15.30;59.10;;;;;;5033651;28;20521;-69
2022/04/19 09:30:34;;;;;;;1.00;0.90;;;15.80;58.50;;;;;;5035596;28;20415;-68
2022/04/19 09:33:05;;;;;;;0.80;0.80;;;15.70;58.30;;;;;;5039558;28;20402;-68
2022/04/19 09:35:33;;;;;;;1.10;1.00;;;15.50;58.20;;;;;;5037496;28;20402;-68
2022/04/19 09:37:58;;;;;;;1.43;0.90;;;15.10;58.50;;;;;;5035404;28;20431;-66
2022/04/19 09:40:38;;;;;;;1.13;0.80;;;15.00;58.30;;;;;;5034392;28;20427;-66
2022/04/19 09:43:11;;;;;;;1.80;1.70;;;15.10;57.90;;;;;;5036539;28;20171;-67
2022/04/19 09:45:58;;;;;;;1.70;1.10;;;14.90;57.60;;;;;;5035376;28;20906;-67
2022/04/19 09:51:16;;;;;;;1.60;0.90;;;15.10;57.80;;;;;;5052817;23;20489;-71
2022/04/19 09:53:48;;;;;;;1.27;1.00;;;15.10;57.40;;;;;;5032751;28;20910;-71
2022/04/19 09:56:19;;;;;;;1.83;1.10;;;15.00;58.40;;;;;;5034446;28;20488;-73
2022/04/19 09:58:47;;;;;;;1.43;0.90;;;14.70;58.20;;;;;;5033983;28;20407;-72
2022/04/19 10:09:31;;;;;;;1.63;1.13;;;14.30;61.40;;;;;;5034391;28;20437;-73
2022/04/19 10:11:57;;;;;;;1.60;1.50;;;14.40;60.50;;;;;;5033817;28;20779;-73
2022/04/19 10:14:23;;;;;;;1.60;1.13;;;14.10;59.90;;;;;;5034394;28;20948;-73
2022/04/19 10:16:49;;;;;;;0.90;0.90;;;14.10;60.50;;;;;;5034019;28;20549;-73
2022/04/19 10:19:16;;;;;;;1.03;1.00;;;13.90;60.90;;;;;;5035309;28;20202;-72
2022/04/19 10:21:44;;;;;;;1.63;1.40;;;13.80;60.80;;;;;;5033660;28;20167;-73
2022/04/19 10:24:16;;;;;;;1.53;1.10;;;13.70;61.80;;;;;;5033572;28;20444;-72
2022/04/19 10:26:46;;;;;;;1.57;1.10;;;13.60;62.50;;;;;;5032984;28;20508;-72
2022/04/19 10:29:29;;;;;;;1.40;1.30;;;13.60;62.60;;;;;;5033479;28;20505;-72
2022/04/19 10:31:59;;;;;;;1.43;1.33;;;13.80;62.90;;;;;;5033441;28;20971;-72
2022/04/19 10:34:26;;;;;;;1.63;1.47;;;13.50;61.50;;;;;;5033027;28;20588;-71
2022/04/19 10:36:54;;;;;;;1.40;1.30;;;13.70;63.30;;;;;;5033141;28;20421;-71
2022/04/19 10:39:22;;;;;;;0.97;0.93;;;13.50;62.60;;;;;;5033147;28;20438;-71
2022/04/19 10:41:59;;;;;;;1.43;1.20;;;13.30;62.70;;;;;;5033122;28;20422;-71
2022/04/19 10:44:43;;;;;;;1.37;1.23;;;13.70;62.90;;;;;;5033258;28;20413;-72
2022/04/19 10:47:23;;;;;;;1.40;1.30;;;13.60;62.20;;;;;;5032962;28;20536;-72
2022/04/19 10:50:04;;;;;;;1.30;1.20;;;13.50;62.30;;;;;;5033007;28;20453;-72
2022/04/19 10:52:36;;;;;;;1.27;1.17;;;13.60;62.30;;;;;;5032768;28;20403;-72
2022/04/19 10:55:02;;;;;;;1.07;0.97;;;13.80;60.50;;;;;;5032883;28;20560;-72
2022/04/19 11:00:34;;;;;;;2.40;1.00;;;13.70;61.30;;;;;;5032789;28;20472;-72
2022/04/19 11:03:02;;;;;;;2.00;1.20;;;13.50;62.60;;;;;;5032624;28;20401;-71
2022/04/19 11:05:46;;;;;;;1.40;1.30;;;13.60;62.50;;;;;;5032747;28;20497;-71
2022/04/19 11:08:26;;;;;;;1.30;1.20;;;13.80;62.40;;;;;;5032336;28;20473;-71
2022/04/19 11:10:55;;;;;;;1.20;1.10;;;13.70;61.20;;;;;;5032390;28;20893;-71
2022/04/19 11:13:22;;;;;;;1.40;1.27;;;13.70;61.00;;;;;;5032306;28;20464;-71
2022/04/19 11:15:58;;;;;;;0.90;0.80;;;13.80;60.00;;;;;;5032338;28;20501;-71
2022/04/19 11:18:27;;;;;;;1.30;1.20;;;13.70;60.00;;;;;;5032535;28;20421;-72
2022/04/19 11:20:58;;;;;;;1.47;1.37;;;13.80;60.50;;;;;;5032380;28;20436;-71
2022/04/19 11:23:25;;;;;;;2.47;1.17;;;14.30;60.70;;;;;;5032585;28;20419;-71
2022/04/19 11:25:52;;;;;;;1.37;1.10;;;14.30;60.40;;;;;;5032385;28;20414;-71
2022/04/19 11:28:23;;;;;;;1.27;1.10;;;14.20;60.50;;;;;;5031314;28;20481;-71
2022/04/19 11:30:57;;;;;;;1.20;1.07;;;14.10;60.40;;;;;;5032420;28;20422;-71
2022/04/19 11:33:33;;;;;;;1.30;1.00;;;14.20;60.70;;;;;;5032297;28;20432;-72
2022/04/19 11:36:14;;;;;;;1.10;1.00;;;14.00;60.80;;;;;;5032479;28;20811;-72
2022/04/19 11:38:42;;;;;;;1.73;1.10;;;13.90;62.10;;;;;;5032338;28;20411;-73
2022/04/19 11:46:45;;;;;;;1.60;1.10;;;14.20;62.30;;;;;;5031649;28;21009;-73
2022/04/19 11:49:20;;;;;;;1.10;1.00;;;14.00;62.10;;;;;;5023140;28;20467;-72
2022/04/19 11:51:54;;;;;;;1.10;1.00;;;13.90;62.60;;;;;;5030037;28;20441;-72
2022/04/19 11:54:21;;;;;;;2.93;1.30;;;13.80;63.00;;;;;;5012922;28;20450;-72
2022/04/19 11:56:55;;;;;;;1.30;1.10;;;13.70;63.70;;;;;;5003582;28;20442;-71
2022/04/19 11:59:31;;;;;;;1.30;1.20;;;13.50;63.50;;;;;;5005336;28;20463;-71
2022/04/19 12:01:58;;;;;;;2.90;1.20;;;13.60;64.10;;;;;;5012513;28;20410;-71
2022/04/19 12:04:24;;;;;;;1.00;0.90;;;13.50;64.70;;;;;;4993802;28;20415;-73
2022/04/19 12:07:03;;;;;;;1.77;1.43;;;13.40;65.30;;;;;;5006035;28;20457;-71
2022/04/19 12:09:30;;;;;;;1.63;1.47;;;13.40;65.40;;;;;;5012059;28;20948;-72
2022/04/19 12:11:56;;;;;;;1.57;1.10;;;13.50;65.60;;;;;;5001324;28;20408;-71
2022/04/19 12:14:32;;;;;;;1.33;1.20;;;13.50;66.00;;;;;;4992280;28;20404;-72
2022/04/19 12:16:59;;;;;;;1.60;1.50;;;13.50;66.50;;;;;;4992378;28;20184;-72
2022/04/19 12:20:00;;;;;;;2.30;1.53;;;13.40;66.40;;;;;;4992219;28;20443;-72
2022/04/19 12:22:26;;;;;;;1.50;1.00;;;13.50;66.60;;;;;;4983587;28;20427;-71
2022/04/19 12:24:58;;;;;;;2.43;1.43;;;13.40;67.00;;;;;;5011852;28;20411;-71
2022/04/19 12:27:28;;;;;;;1.40;1.20;;;13.60;66.80;;;;;;5011923;28;20184;-72
2022/04/19 12:29:55;;;;;;;1.60;1.40;;;13.50;67.10;;;;;;4994263;28;20432;-73
2022/04/19 12:32:21;;;;;;;1.73;1.30;;;13.30;67.40;;;;;;4992448;28;20404;-71
2022/04/19 12:34:47;;;;;;;2.53;1.70;;;13.10;68.00;;;;;;4992316;28;20412;-71
2022/04/19 12:37:16;;;;;;;2.23;1.50;;;13.00;68.30;;;;;;4992748;28;20188;-73
2022/04/19 12:39:59;;;;;;;1.67;1.23;;;13.10;68.70;;;;;;4992515;28;20195;-73
2022/04/19 12:42:25;;;;;;;1.93;1.30;;;13.20;69.10;;;;;;4992334;28;20415;-72
2022/04/19 12:45:10;;;;;;;1.33;1.20;;;13.10;69.30;;;;;;4992559;28;20408;-71
2022/04/19 12:47:37;;;;;;;1.80;1.30;;;13.20;69.90;;;;;;4992280;28;20486;-72
2022/04/19 12:50:14;;;;;;;1.27;1.17;;;13.50;69.40;;;;;;4991869;28;20930;-71
2022/04/19 12:52:41;;;;;;;1.93;1.47;;;13.50;68.40;;;;;;4992294;28;20615;-72
2022/04/19 12:55:09;;;;;;;1.20;1.00;;;13.80;68.50;;;;;;4993954;28;20403;-71
2022/04/19 13:04:41;;;;;;;1.60;1.50;;;13.90;66.80;;;;;;4995842;28;20384;-73
2022/04/19 13:12:35;;;;;;;5.73;1.20;;;13.80;67.80;;;;;;4995617;28;20406;-72
2022/04/19 13:15:03;;;;;;;1.70;1.20;;;13.90;68.20;;;;;;4995220;28;20408;-72
2022/04/19 13:17:34;;;;;;;1.20;1.10;;;13.90;68.10;;;;;;4995865;28;20165;-72
2022/04/19 13:20:01;;;;;;;0.80;0.80;;;14.00;67.50;;;;;;5014269;28;20431;-72
2022/04/19 13:22:27;;;;;;;1.40;1.23;;;13.90;66.60;;;;;;5014913;28;20913;-73
2022/04/19 13:24:52;;;;;;;3.77;1.40;;;13.70;66.30;;;;;;5014712;28;20407;-73
2022/04/19 13:27:18;;;;;;;1.30;1.20;;;13.80;66.60;;;;;;5014630;28;20188;-72
2022/04/19 13:29:44;;;;;;;1.27;1.13;;;13.80;67.20;;;;;;5014844;28;20545;-71
2022/04/19 13:32:11;;;;;;;1.07;0.97;;;13.90;67.10;;;;;;5014544;28;20295;-71
2022/04/19 13:34:38;;;;;;;1.10;1.00;;;14.00;67.10;;;;;;5014755;28;20415;-71
2022/04/19 13:37:04;;;;;;;1.10;0.97;;;13.90;66.70;;;;;;5015022;28;20796;-72
2022/04/19 13:39:30;;;;;;;1.53;1.30;;;13.90;66.50;;;;;;5014619;28;20430;-72
2022/04/19 13:41:56;;;;;;;2.30;1.00;;;13.80;66.20;;;;;;5013435;28;20415;-71
2022/04/19 13:44:22;;;;;;;1.00;0.90;;;13.80;66.10;;;;;;5014383;28;20177;-71
2022/04/19 13:46:48;;;;;;;1.33;1.17;;;13.80;66.80;;;;;;5014409;28;20184;-71